CO05 weather

Aurora Presbyterian Hospital Heliport
Aurora, Colorado, United States

Public forecast

Using degrees Fahrenheit for public forecast. Weather courtesy of forecast.io.

METAR (pilot weather report)

Closest report is Buckley Air Force Base, 3.8 nm (7.0 km) ESE. Retrieved 2019/04/25 06:58 UTC (23 minutes ago):

KBKF 250658Z 28005KT 10SM BKN110 BKN220 13/01 A2999 RMK AO2A SLP094 T01300010 402250059

TAF (pilot weather forecast)

Forecast is more than 6 hours old.

Closest forecast is Buckley Air Force Base, 3.8 nm (7.0 km) ESE. Retrieved 2019/04/25 01:03 UTC (6 hours ago):

TAF KBKF 250101Z 2501/2607 VRB06KT 9999 FEW080 QNH2991INS BECMG 2505/2506 33012KT 9999 SCT040 BKN060 QNH2997INS BECMG 2507/2508 01012G18KT 9999 FEW010 SCT030 BKN040 QNH2997INS TEMPO 2508/2512 36020G30KT 520009 BECMG 2512/2513 31009KT 9999 SCT030 BKN050 QNH3018INS BECMG 2521/2522 VRB06KT 9999 SKC QNH3017INS BECMG 2603/2604 12012KT 9999 FEW040 QNH3015INS TX21/2522Z TN06/2511Z